createdAt,value
2023-01-27T00:21:09.653Z,82.75
2023-01-27T00:33:30.243Z,81.63
2023-01-27T00:59:30.145Z,81.43
2023-01-27T01:30:48.538Z,80.00
2023-01-27T01:34:58.833Z,79.47
2023-01-27T01:54:23.401Z,78.30
2023-01-27T02:12:19.226Z,77.15
2023-01-27T02:15:45.603Z,76.83
2023-01-27T02:24:10.883Z,76.84
2023-01-27T02:27:37.839Z,76.75
2023-01-27T02:31:21.202Z,76.36
2023-01-27T02:36:02.607Z,76.15
2023-01-27T02:43:45.296Z,75.63
2023-01-27T02:47:01.766Z,75.42
2023-01-27T05:19:24.781Z,67.30
2023-01-27T05:28:18.411Z,67.80
2023-01-27T05:32:03.752Z,67.71
2023-01-27T05:50:59.226Z,68.26
2023-01-27T05:54:44.817Z,68.16
2023-01-27T05:58:26.954Z,67.83
2023-01-27T06:02:00.787Z,67.95
2023-01-27T06:06:05.807Z,67.56
2023-01-27T06:09:19.398Z,67.71
2023-01-27T06:12:48.703Z,67.23
2023-01-27T06:16:26.848Z,67.51
2023-01-27T06:19:54.685Z,67.50
2023-01-27T06:23:29.191Z,67.02
2023-01-27T06:26:49.548Z,67.20
2023-01-27T06:34:10.471Z,67.81
2023-01-27T06:37:37.917Z,67.75
2023-01-27T06:40:50.776Z,67.78
2023-01-27T06:45:36.828Z,67.91
2023-01-27T06:48:49.260Z,67.78
2023-01-27T06:52:11.169Z,67.72
2023-01-27T06:55:57.756Z,66.29
2023-01-27T06:59:24.041Z,67.70
2023-01-27T07:03:06.064Z,67.72
2023-01-27T07:06:18.959Z,67.24
2023-01-27T07:10:04.379Z,67.10
2023-01-27T07:13:20.830Z,67.02
2023-01-27T07:16:26.455Z,66.32
2023-01-27T07:19:29.009Z,66.73
2023-01-27T07:22:31.620Z,66.31
2023-01-27T07:25:35.409Z,66.73
2023-01-27T07:28:47.520Z,66.23
2023-01-27T07:32:28.115Z,66.07
2023-01-27T07:35:36.971Z,65.87
2023-01-27T07:38:39.538Z,66.10
2023-01-27T07:42:15.640Z,66.15
2023-01-27T07:50:27.456Z,64.89
2023-01-27T07:53:30.879Z,65.49
2023-01-27T07:56:36.754Z,65.80
2023-01-27T07:59:41.956Z,65.63
2023-01-27T08:02:44.826Z,66.42
2023-01-27T08:05:47.668Z,64.88
2023-01-27T08:08:50.426Z,65.13
2023-01-27T08:11:53.359Z,65.57
2023-01-27T08:15:14.484Z,65.47
2023-01-27T08:18:18.271Z,65.25
2023-01-27T08:21:34.731Z,64.66
2023-01-27T08:24:44.492Z,64.63
2023-01-27T08:27:54.928Z,64.48
2023-01-27T08:31:06.159Z,64.26
2023-01-27T08:34:26.429Z,64.68
2023-01-27T08:37:30.351Z,65.51
2023-01-27T08:41:30.340Z,64.98
2023-01-27T08:45:01.214Z,64.44
2023-01-27T08:48:13.883Z,64.62
2023-01-27T08:51:30.782Z,64.40
2023-01-27T08:54:33.329Z,64.62
2023-01-27T08:57:37.067Z,64.31
2023-01-27T09:00:39.786Z,64.17
2023-01-27T09:03:42.309Z,65.20
2023-01-27T09:06:48.421Z,65.29
2023-01-27T09:09:55.991Z,64.65
2023-01-27T09:13:03.818Z,65.36
2023-01-27T09:16:06.961Z,64.87
2023-01-27T09:19:09.864Z,65.36
2023-01-27T09:22:12.525Z,65.86
2023-01-27T09:25:17.400Z,65.32
2023-01-27T09:28:20.021Z,65.19
2023-01-27T09:31:22.915Z,65.23
2023-01-27T09:34:25.978Z,65.87
2023-01-27T09:37:29.419Z,66.58
2023-01-27T09:41:01.033Z,65.73
2023-01-27T09:44:22.191Z,66.24
2023-01-27T09:48:08.120Z,66.68
2023-01-27T09:51:42.257Z,66.95
2023-01-27T09:54:48.731Z,66.66
2023-01-27T09:58:24.752Z,67.27
2023-01-27T10:01:44.701Z,66.80
2023-01-27T10:04:59.632Z,66.85
2023-01-27T10:12:58.275Z,67.71
2023-01-27T10:16:32.402Z,67.18
2023-01-27T10:20:01.960Z,67.68
2023-01-27T10:23:34.823Z,67.77
2023-01-27T10:26:49.242Z,68.43
2023-01-27T10:30:02.983Z,68.88
2023-01-27T10:33:19.898Z,70.05
2023-01-27T10:36:27.144Z,71.42
2023-01-27T10:39:44.090Z,71.72
2023-01-27T10:42:59.316Z,73.26
2023-01-27T10:46:14.210Z,73.82
2023-01-27T10:49:26.106Z,74.12
2023-01-27T10:52:41.064Z,74.99
2023-01-27T10:55:57.401Z,75.39
2023-01-27T10:59:03.089Z,75.41
2023-01-27T11:02:30.029Z,73.55
2023-01-27T11:05:49.535Z,73.72
2023-01-27T11:08:59.251Z,74.42
2023-01-27T11:12:06.211Z,73.46
2023-01-27T11:15:35.165Z,72.91
2023-01-27T11:18:39.166Z,72.47
2023-01-27T11:21:41.721Z,73.05
2023-01-27T11:25:21.393Z,74.82
2023-01-27T11:28:48.535Z,74.00
2023-01-27T11:32:01.815Z,74.01
2023-01-27T11:35:10.743Z,76.03
2023-01-27T11:38:18.665Z,75.57
2023-01-27T11:41:22.143Z,76.11
2023-01-27T11:44:32.240Z,75.53
2023-01-27T11:47:38.793Z,75.28
2023-01-27T11:50:45.403Z,76.28
2023-01-27T11:54:05.224Z,76.57
2023-01-27T11:57:17.961Z,76.39
2023-01-27T12:00:24.098Z,76.68
2023-01-27T12:03:42.462Z,76.15
2023-01-27T12:06:52.174Z,75.56
2023-01-27T12:09:54.876Z,76.34
2023-01-27T12:13:09.386Z,76.12
2023-01-27T12:16:15.453Z,76.22
2023-01-27T12:19:23.639Z,77.02
2023-01-27T12:22:32.627Z,76.48
2023-01-27T12:25:49.611Z,76.76
2023-01-27T12:28:54.622Z,75.92
2023-01-27T12:31:59.492Z,75.61
2023-01-27T12:35:02.916Z,75.23
2023-01-27T12:38:20.349Z,75.35
2023-01-27T12:41:26.932Z,75.57
2023-01-27T12:44:42.602Z,74.76
2023-01-27T12:48:14.074Z,74.13
2023-01-27T12:51:19.564Z,73.80
2023-01-27T12:54:29.343Z,73.03
2023-01-27T12:57:33.152Z,73.54
2023-01-27T13:00:35.915Z,72.66
2023-01-27T13:03:42.258Z,71.82
2023-01-27T13:06:55.489Z,71.93
2023-01-27T13:10:04.256Z,71.86
2023-01-27T13:13:20.813Z,72.83
2023-01-27T13:16:27.673Z,73.21
2023-01-27T13:19:39.005Z,73.53
2023-01-27T13:22:49.187Z,73.53
2023-01-27T13:26:02.325Z,74.38
2023-01-27T13:29:24.335Z,74.25
2023-01-27T13:32:32.295Z,74.41
2023-01-27T13:35:42.158Z,74.04
2023-01-27T13:38:51.471Z,74.24
2023-01-27T13:42:06.272Z,73.87
2023-01-27T13:45:16.618Z,74.81
2023-01-27T13:48:27.000Z,74.34
2023-01-27T13:51:31.030Z,74.29
2023-01-27T13:54:34.052Z,73.09
2023-01-27T13:57:52.859Z,72.97
2023-01-27T14:01:10.735Z,73.09
2023-01-27T14:04:42.371Z,72.86
2023-01-27T14:07:55.021Z,73.88
2023-01-27T14:11:37.197Z,74.50
2023-01-27T14:15:01.782Z,74.55
2023-01-27T14:18:25.034Z,73.21
2023-01-27T14:21:48.085Z,73.07
2023-01-27T14:24:59.922Z,73.22
2023-01-27T14:28:15.442Z,73.30
2023-01-27T14:31:23.326Z,73.31
2023-01-27T14:34:37.880Z,73.25
2023-01-27T14:38:04.521Z,72.95
2023-01-27T14:41:11.612Z,72.87
2023-01-27T14:44:18.267Z,72.38
2023-01-27T14:47:21.792Z,72.47
2023-01-27T14:50:27.684Z,72.77
2023-01-27T14:53:36.300Z,72.77
2023-01-27T14:56:46.935Z,72.85
2023-01-27T15:00:04.274Z,73.04
2023-01-27T15:03:25.699Z,72.63
2023-01-27T15:06:47.779Z,72.65
2023-01-27T15:10:17.652Z,72.59
2023-01-27T15:13:45.232Z,73.18
2023-01-27T15:17:09.748Z,72.90
2023-01-27T15:20:31.016Z,72.78
2023-01-27T15:23:36.612Z,72.94
2023-01-27T15:26:40.339Z,72.59
2023-01-27T15:29:44.743Z,72.76
2023-01-27T15:32:48.148Z,72.41
2023-01-27T15:36:36.663Z,73.24
2023-01-27T15:40:16.975Z,72.84
2023-01-27T15:43:23.519Z,73.14
2023-01-27T15:46:33.482Z,72.92
2023-01-27T15:49:47.297Z,73.41
2023-01-27T15:52:51.026Z,73.06
2023-01-27T15:55:55.635Z,73.21
2023-01-27T15:59:04.974Z,72.91
2023-01-27T16:02:23.537Z,73.01
2023-01-27T16:05:36.994Z,73.17
2023-01-27T16:08:44.276Z,72.88
2023-01-27T16:12:07.439Z,73.44
2023-01-27T16:15:32.617Z,73.03
2023-01-27T16:18:46.228Z,73.03
2023-01-27T16:22:02.762Z,73.25
2023-01-27T16:25:11.960Z,72.90
2023-01-27T16:28:21.120Z,72.89
2023-01-27T16:31:28.483Z,73.07
2023-01-27T16:34:39.221Z,73.44
2023-01-27T16:37:55.457Z,72.76
2023-01-27T16:41:17.632Z,72.88
2023-01-27T16:44:24.742Z,72.72
2023-01-27T16:47:41.393Z,72.47
2023-01-27T16:50:44.707Z,72.77
2023-01-27T16:53:49.836Z,73.06
2023-01-27T16:56:52.749Z,73.30
2023-01-27T16:59:59.144Z,73.69
2023-01-27T17:03:14.359Z,74.00
2023-01-27T17:06:17.803Z,73.70
2023-01-27T17:09:23.633Z,73.95
2023-01-27T17:12:34.169Z,73.76
2023-01-27T17:15:38.816Z,73.52
2023-01-27T17:18:52.290Z,74.27
2023-01-27T17:21:59.280Z,73.84
2023-01-27T17:25:06.674Z,73.62
2023-01-27T17:28:18.396Z,73.71
2023-01-27T17:31:23.773Z,73.98
2023-01-27T17:34:26.865Z,73.79
2023-01-27T17:37:31.171Z,73.71
2023-01-27T17:40:39.788Z,74.10
2023-01-27T17:43:44.528Z,73.71
2023-01-27T17:46:47.585Z,73.49
2023-01-27T17:49:51.321Z,73.44
2023-01-27T17:52:56.528Z,73.39
2023-01-27T17:55:59.497Z,73.88
2023-01-27T17:59:11.492Z,73.85
2023-01-27T18:02:24.900Z,73.76
2023-01-27T18:05:32.317Z,73.84
2023-01-27T18:08:36.033Z,73.73
2023-01-27T18:11:39.293Z,73.56
2023-01-27T18:14:42.802Z,73.57
2023-01-27T18:17:59.095Z,73.71
2023-01-27T18:21:13.688Z,73.84
2023-01-27T18:24:23.882Z,73.96
2023-01-27T18:27:26.333Z,74.23
2023-01-27T18:30:29.382Z,74.04
2023-01-27T18:33:32.985Z,74.10
2023-01-27T18:36:39.100Z,74.60
2023-01-27T18:39:45.276Z,74.20
2023-01-27T18:42:53.187Z,74.41
2023-01-27T18:45:56.258Z,74.72
2023-01-27T18:49:00.652Z,74.85
2023-01-27T18:52:11.454Z,74.72
2023-01-27T18:55:23.191Z,75.05
2023-01-27T18:58:25.867Z,75.17
2023-01-27T19:01:29.068Z,76.21
2023-01-27T19:04:32.600Z,75.91
2023-01-27T19:07:37.320Z,76.19
2023-01-27T19:10:40.517Z,76.64
2023-01-27T19:13:44.917Z,76.08
2023-01-27T19:16:48.077Z,76.48
2023-01-27T19:19:51.110Z,76.51
2023-01-27T19:22:55.148Z,76.55
2023-01-27T19:26:01.899Z,76.55
2023-01-27T19:29:04.811Z,76.88
2023-01-27T19:32:13.399Z,76.95
2023-01-27T19:35:16.156Z,77.02
2023-01-27T19:38:19.544Z,77.12
2023-01-27T19:41:22.483Z,76.82
2023-01-27T19:44:25.272Z,76.95
2023-01-27T19:47:28.334Z,76.86
2023-01-27T19:50:32.449Z,76.68
2023-01-27T19:53:35.832Z,76.74
2023-01-27T19:56:39.951Z,76.67
2023-01-27T19:59:42.631Z,76.08
2023-01-27T20:02:45.868Z,76.28
2023-01-27T20:05:48.769Z,76.08
2023-01-27T20:09:02.771Z,75.90
2023-01-27T20:12:05.793Z,75.22
2023-01-27T20:15:18.067Z,75.08
2023-01-27T20:18:23.636Z,75.06
2023-01-27T20:21:27.987Z,75.13
2023-01-27T20:24:31.111Z,75.02
2023-01-27T20:27:34.588Z,75.49
2023-01-27T20:30:38.851Z,75.55
2023-01-27T20:33:42.059Z,75.63
2023-01-27T20:36:44.636Z,76.11
2023-01-27T20:39:47.778Z,76.28
2023-01-27T20:42:51.265Z,76.54
2023-01-27T20:45:54.453Z,77.17
2023-01-27T20:48:58.811Z,77.19
2023-01-27T20:52:01.757Z,77.35
2023-01-27T20:55:05.722Z,77.25
2023-01-27T20:58:08.845Z,77.36
2023-01-27T21:01:20.537Z,77.30
2023-01-27T21:04:23.640Z,77.62
2023-01-27T21:07:26.359Z,77.63
2023-01-27T21:10:29.915Z,77.44
2023-01-27T21:13:32.929Z,77.97
2023-01-27T21:16:36.143Z,77.20
2023-01-27T21:19:39.004Z,77.41
2023-01-27T21:22:44.825Z,77.22
2023-01-27T21:25:47.666Z,77.40
2023-01-27T21:28:51.136Z,77.27
2023-01-27T21:31:54.484Z,77.04
2023-01-27T21:34:58.849Z,77.24
2023-01-27T21:38:01.739Z,77.56
2023-01-27T21:41:07.639Z,77.07
2023-01-27T21:44:43.413Z,77.56
2023-01-27T21:47:46.274Z,77.55
2023-01-27T21:50:52.589Z,77.80
2023-01-27T21:53:55.762Z,77.86
2023-01-27T21:56:58.871Z,77.95
2023-01-27T22:00:02.556Z,78.01
2023-01-27T22:03:15.191Z,78.26
2023-01-27T22:06:18.561Z,78.57
2023-01-27T22:09:21.067Z,78.72
2023-01-27T22:12:24.172Z,78.37
2023-01-27T22:15:30.653Z,78.48
2023-01-27T22:18:33.652Z,78.63
2023-01-27T22:21:36.289Z,78.77
2023-01-27T22:24:39.138Z,78.73
2023-01-27T22:27:42.923Z,78.51
2023-01-27T22:30:45.898Z,78.45
2023-01-27T22:33:48.315Z,78.86
2023-01-27T22:36:51.978Z,78.61
2023-01-27T22:39:54.389Z,79.03
2023-01-27T22:42:57.473Z,78.63
2023-01-27T22:46:02.224Z,79.12
2023-01-27T22:49:05.149Z,78.86
2023-01-27T22:52:07.971Z,78.77
2023-01-27T22:55:12.460Z,78.50
2023-01-27T22:58:15.441Z,78.75
2023-01-27T23:01:18.542Z,78.80
2023-01-27T23:04:21.422Z,79.00
2023-01-27T23:07:25.061Z,79.44
2023-01-27T23:10:28.124Z,79.44
2023-01-27T23:13:31.996Z,80.04
2023-01-27T23:16:35.111Z,79.81
2023-01-27T23:19:38.160Z,79.74
2023-01-27T23:22:41.202Z,79.64
2023-01-27T23:25:45.966Z,80.00
2023-01-27T23:28:48.857Z,80.16
2023-01-27T23:31:51.917Z,80.38
2023-01-27T23:34:54.508Z,80.31
2023-01-27T23:37:57.366Z,80.83
2023-01-27T23:41:04.893Z,80.96
2023-01-27T23:44:13.045Z,81.20
2023-01-27T23:47:16.674Z,81.25
2023-01-27T23:50:20.009Z,81.08
2023-01-27T23:53:23.173Z,81.51
2023-01-27T23:56:26.134Z,81.84
2023-01-27T23:59:29.134Z,82.37
